Time;durP1;ratioP1;P1;durP2;ratioP2;P2;SDS_P1;SDS_P2;PMS_P1;PMS_P2;Temp;Humidity;BMP_temperature;BMP_pressure;BME280_temperature;BME280_humidity;BME280_pressure;Samples;Min_cycle;Max_cycle;Signal;HPM_P1;HPM_P2
2022/05/03 00:01:49;;;;;;;1.40;1.37;;;11.50;88.00;10.80;98072.00;;;;5134824;28;20197;-78
2022/05/03 00:04:26;;;;;;;2.53;2.33;;;11.50;89.00;10.90;98074.00;;;;5134743;28;20338;-78
2022/05/03 00:07:04;;;;;;;2.20;2.00;;;11.50;88.90;10.90;98074.00;;;;5134753;28;20189;-79
2022/05/03 00:09:54;;;;;;;1.10;1.10;;;11.50;88.60;10.90;98073.00;;;;5135028;28;20221;-79
2022/05/03 00:12:29;;;;;;;1.53;1.43;;;11.50;88.70;10.90;98073.00;;;;5134631;28;20299;-79
2022/05/03 00:15:00;;;;;;;1.67;1.37;;;11.50;89.00;10.90;98051.00;;;;5134589;28;20192;-79
2022/05/03 00:17:29;;;;;;;1.10;1.10;;;11.60;88.40;10.90;98069.00;;;;5134311;28;20233;-78
2022/05/03 00:19:56;;;;;;;1.40;1.30;;;11.50;88.50;10.90;98070.00;;;;5134407;28;20670;-78
2022/05/03 00:22:23;;;;;;;1.63;1.57;;;11.60;88.50;10.90;98069.00;;;;5134354;28;20221;-78
2022/05/03 00:24:54;;;;;;;1.60;1.50;;;11.50;88.60;10.90;98044.00;;;;5134741;28;20253;-78
2022/05/03 00:27:24;;;;;;;1.10;1.10;;;11.50;88.50;10.80;98037.00;;;;5134303;28;20170;-78
2022/05/03 00:29:52;;;;;;;1.90;1.80;;;11.50;89.00;10.90;98067.00;;;;5134569;28;20198;-79
2022/05/03 00:32:21;;;;;;;1.23;1.23;;;11.50;89.70;10.80;98064.00;;;;5134378;28;20208;-78
2022/05/03 00:34:49;;;;;;;2.03;1.93;;;11.50;89.20;10.80;98068.00;;;;5134464;28;20200;-78
2022/05/03 00:37:16;;;;;;;1.93;1.83;;;11.40;89.40;10.70;98068.00;;;;5116321;28;20321;-77
2022/05/03 00:39:46;;;;;;;1.53;1.43;;;11.40;91.00;10.70;98042.00;;;;5134116;28;20221;-78
2022/05/03 00:42:19;;;;;;;1.10;1.10;;;11.40;91.30;10.80;98065.00;;;;5134275;28;20258;-78
2022/05/03 00:45:02;;;;;;;1.30;1.30;;;11.40;90.70;10.80;98069.00;;;;5134195;28;20329;-79
2022/05/03 00:47:44;;;;;;;1.50;1.40;;;11.40;90.20;10.70;98067.00;;;;5134349;28;20197;-78
2022/05/03 00:50:29;;;;;;;1.03;1.03;;;11.40;90.00;10.70;98058.00;;;;5133867;28;20224;-79
2022/05/03 00:53:02;;;;;;;1.17;1.17;;;11.40;91.20;10.80;98060.00;;;;5116349;28;20205;-76
2022/05/03 00:56:12;;;;;;;1.00;1.00;;;11.50;90.50;10.80;98066.00;;;;5134304;28;20221;-78
2022/05/03 00:59:01;;;;;;;1.33;1.27;;;11.40;90.40;10.80;98062.00;;;;5134628;28;20193;-77
2022/05/03 01:01:40;;;;;;;1.57;1.47;;;11.40;90.60;10.80;98055.00;;;;5116343;28;20229;-78
2022/05/03 01:04:20;;;;;;;2.83;2.37;;;11.40;90.90;10.70;98013.00;;;;5133927;28;20212;-79
2022/05/03 01:06:56;;;;;;;1.13;1.13;;;11.40;90.90;10.70;98059.00;;;;5133841;27;20228;-79
2022/05/03 01:09:34;;;;;;;1.67;1.57;;;11.30;91.20;10.70;98052.00;;;;5144574;28;20204;-79
2022/05/03 01:12:18;;;;;;;2.10;2.00;;;11.40;90.90;10.50;98060.00;;;;5143923;28;20193;-78
2022/05/03 01:15:08;;;;;;;2.60;2.40;;;11.20;91.50;10.50;98055.00;;;;5137937;28;20208;-79
2022/05/03 01:17:43;;;;;;;0.90;0.90;;;11.20;91.80;10.50;98064.00;;;;5137175;28;20250;-78
2022/05/03 01:20:17;;;;;;;1.23;1.23;;;11.20;92.10;10.50;98052.00;;;;5119464;28;20193;-79
2022/05/03 01:23:33;;;;;;;4.70;2.53;;;11.20;92.30;10.40;98043.00;;;;5137310;28;20554;-78
2022/05/03 01:26:26;;;;;;;1.63;1.53;;;11.20;92.40;10.50;98061.00;;;;5131079;28;20225;-79
2022/05/03 01:29:23;;;;;;;1.07;1.07;;;11.20;93.00;10.50;98058.00;;;;5137268;28;20249;-78
2022/05/03 01:31:58;;;;;;;1.93;1.83;;;11.10;92.90;10.40;98062.00;;;;5119085;28;20248;-78
2022/05/03 01:34:28;;;;;;;2.27;2.17;;;11.10;92.40;10.40;98062.00;;;;5137043;28;20624;-78
2022/05/03 01:37:14;;;;;;;1.20;1.20;;;11.00;92.30;10.40;98070.00;;;;5137233;28;20296;-78
2022/05/03 01:40:03;;;;;;;1.23;0.90;;;11.00;92.30;10.30;98069.00;;;;5137072;28;20205;-78
2022/05/03 01:43:01;;;;;;;1.03;1.03;;;11.00;92.30;10.20;98051.00;;;;5136883;28;20269;-78
2022/05/03 01:45:32;;;;;;;1.60;1.50;;;11.00;91.90;10.20;98054.00;;;;5118721;28;20240;-78
2022/05/03 01:51:56;;;;;;;1.50;1.43;;;10.90;92.70;10.20;98041.00;;;;5118498;28;20233;-78
2022/05/03 01:55:08;;;;;;;1.67;1.57;;;10.80;92.70;10.10;98050.00;;;;5136943;28;20296;-77
2022/05/03 01:57:54;;;;;;;1.20;1.13;;;10.80;92.60;10.10;98047.00;;;;5113260;28;20237;-77
2022/05/03 02:00:23;;;;;;;2.53;2.33;;;10.80;92.50;10.00;98047.00;;;;5136644;28;20272;-78
2022/05/03 02:03:00;;;;;;;2.40;1.83;;;10.70;93.40;10.10;98033.00;;;;5136364;28;20304;-78
2022/05/03 02:05:53;;;;;;;1.23;1.13;;;10.70;93.10;10.10;98052.00;;;;5136477;28;20201;-77
2022/05/03 02:08:24;;;;;;;1.47;1.37;;;10.70;93.20;10.10;98042.00;;;;5136326;28;20221;-78
2022/05/03 02:11:08;;;;;;;1.80;1.70;;;10.70;92.80;10.10;98051.00;;;;5136083;28;20207;-78
2022/05/03 02:17:05;;;;;;;1.40;1.30;;;10.60;91.90;9.80;98055.00;;;;5136300;28;20225;-78
2022/05/03 02:20:01;;;;;;;1.97;1.87;;;10.50;92.40;9.60;98060.00;;;;5134962;27;20519;-78
2022/05/03 02:23:15;;;;;;;3.40;1.63;;;10.40;92.40;9.60;98051.00;;;;5118279;28;20216;-78
2022/05/03 02:26:09;;;;;;;1.50;1.40;;;10.20;93.30;9.60;98060.00;;;;5118308;28;20343;-78
2022/05/03 02:28:41;;;;;;;1.37;1.37;;;10.30;93.90;9.60;98056.00;;;;5136002;28;20220;-78
2022/05/03 02:31:13;;;;;;;2.10;1.90;;;10.20;93.80;9.60;98047.00;;;;5118504;28;20524;-78
2022/05/03 02:33:49;;;;;;;1.13;1.13;;;10.20;94.00;9.40;98052.00;;;;5135899;28;20250;-78
2022/05/03 02:36:21;;;;;;;2.23;2.13;;;10.20;94.20;9.50;98043.00;;;;5135878;28;20412;-78
2022/05/03 02:38:59;;;;;;;2.30;2.17;;;10.20;95.30;9.60;98046.00;;;;5135849;28;20217;-78
2022/05/03 02:41:31;;;;;;;1.53;1.43;;;10.20;95.00;9.60;98049.00;;;;5136026;28;20224;-78
2022/05/03 02:43:59;;;;;;;2.00;1.50;;;10.20;94.90;9.50;98039.00;;;;5135767;28;20227;-77
2022/05/03 02:46:51;;;;;;;1.90;1.80;;;10.20;94.60;9.40;98049.00;;;;5135818;28;20221;-78
2022/05/03 02:49:26;;;;;;;1.30;1.30;;;10.10;95.10;9.60;98043.00;;;;5135777;28;20220;-78
2022/05/03 02:52:21;;;;;;;1.63;1.50;;;10.20;95.10;9.50;98039.00;;;;5135665;28;20232;-78
2022/05/03 02:55:03;;;;;;;1.17;1.17;;;10.20;94.50;9.50;98039.00;;;;5135930;28;20241;-78
2022/05/03 02:57:45;;;;;;;1.27;1.27;;;10.20;94.30;9.20;98037.00;;;;5135669;28;20235;-77
2022/05/03 03:03:36;;;;;;;1.80;1.70;;;10.00;95.30;9.30;98006.00;;;;5135513;28;20205;-78
2022/05/03 03:06:04;;;;;;;3.83;1.23;;;9.90;95.00;9.30;98033.00;;;;5135718;28;20197;-78
2022/05/03 03:08:41;;;;;;;1.33;1.10;;;10.00;94.20;9.20;98028.00;;;;5135362;28;20253;-77
2022/05/03 03:11:16;;;;;;;1.37;1.27;;;9.90;94.00;9.20;98037.00;;;;5135502;28;20209;-77
2022/05/03 03:14:00;;;;;;;1.97;1.87;;;9.90;94.30;9.10;98036.00;;;;5135137;28;20221;-78
2022/05/03 03:16:40;;;;;;;1.07;1.07;;;9.90;94.60;9.20;98027.00;;;;5135314;28;20209;-77
2022/05/03 03:19:27;;;;;;;2.07;1.97;;;9.80;94.70;9.10;98036.00;;;;5135366;28;20259;-78
2022/05/03 03:21:58;;;;;;;2.67;1.93;;;9.80;94.30;9.10;98030.00;;;;5135762;28;20189;-77
2022/05/03 03:24:28;;;;;;;2.13;1.93;;;9.80;94.40;8.90;98036.00;;;;5135757;28;20259;-78
2022/05/03 03:26:57;;;;;;;1.90;1.80;;;9.60;94.70;8.90;98040.00;;;;5137821;28;20198;-77
2022/05/03 03:29:27;;;;;;;3.93;2.23;;;9.70;95.10;9.10;98034.00;;;;5139012;28;20228;-77
2022/05/03 03:31:56;;;;;;;1.73;1.63;;;9.70;95.30;9.10;98034.00;;;;5137893;27;20196;-77
2022/05/03 03:34:25;;;;;;;2.03;1.93;;;9.70;95.10;8.90;98032.00;;;;5137251;28;20219;-78
2022/05/03 03:37:01;;;;;;;1.50;1.40;;;9.60;94.10;8.80;98036.00;;;;5137919;28;20651;-77
2022/05/03 03:39:32;;;;;;;0.90;0.90;;;9.50;94.70;8.80;98050.00;;;;5139536;28;20278;-79
2022/05/03 03:42:01;;;;;;;1.87;1.77;;;9.50;95.00;8.70;98051.00;;;;5137276;28;20648;-79
2022/05/03 03:44:29;;;;;;;1.20;1.20;;;9.40;94.60;8.70;98054.00;;;;5136458;28;20307;-79
2022/05/03 03:46:59;;;;;;;1.33;1.33;;;9.40;95.30;8.60;98052.00;;;;5135221;28;20211;-78
2022/05/03 03:49:26;;;;;;;1.30;1.30;;;9.30;95.20;8.50;98045.00;;;;5117008;28;20289;-78
2022/05/03 03:51:54;;;;;;;1.60;1.57;;;9.20;95.80;8.60;98061.00;;;;5134905;28;20707;-77
2022/05/03 03:54:23;;;;;;;1.40;1.30;;;9.30;96.10;8.50;98052.00;;;;5134668;28;20217;-77
2022/05/03 03:56:52;;;;;;;1.77;1.67;;;9.20;95.80;8.50;98039.00;;;;5134642;28;20220;-78
2022/05/03 03:59:19;;;;;;;1.83;1.73;;;9.30;96.30;8.50;98044.00;;;;5134559;28;20672;-77
2022/05/03 04:01:48;;;;;;;3.33;2.53;;;9.20;96.30;8.40;98041.00;;;;5134896;28;20209;-77
2022/05/03 04:04:16;;;;;;;1.27;1.27;;;9.20;96.60;8.50;98041.00;;;;5134526;28;20232;-78
2022/05/03 04:06:43;;;;;;;1.30;1.27;;;9.20;97.10;8.60;98044.00;;;;5134737;28;20193;-78
2022/05/03 04:09:10;;;;;;;1.57;1.53;;;9.20;96.90;8.70;98041.00;;;;5134716;28;20216;-78
2022/05/03 04:11:43;;;;;;;1.90;1.80;;;9.30;96.90;8.70;98047.00;;;;5135014;28;20201;-77
2022/05/03 04:14:11;;;;;;;0.93;0.93;;;9.30;96.60;8.70;98043.00;;;;5136788;28;20229;-77
2022/05/03 04:16:37;;;;;;;1.37;1.27;;;9.40;96.60;8.60;98048.00;;;;5125007;28;20224;-78
2022/05/03 04:19:04;;;;;;;1.47;1.47;;;9.40;96.20;8.60;98048.00;;;;5138623;28;20262;-78
2022/05/03 04:21:31;;;;;;;1.67;1.57;;;9.30;96.90;8.60;98022.00;;;;5135478;28;20209;-77
2022/05/03 04:23:57;;;;;;;1.10;1.10;;;9.40;96.00;8.80;98046.00;;;;5134653;28;20193;-78
2022/05/03 04:26:23;;;;;;;1.17;1.17;;;9.40;96.00;8.80;98049.00;;;;5134362;28;20199;-77
2022/05/03 04:28:56;;;;;;;1.83;1.73;;;9.40;95.70;8.70;98049.00;;;;5134411;28;20225;-77
2022/05/03 04:31:26;;;;;;;1.67;1.57;;;9.40;95.50;8.70;98051.00;;;;5134438;28;20185;-77
2022/05/03 04:33:52;;;;;;;1.60;1.50;;;9.30;95.50;8.70;98048.00;;;;5134393;28;20209;-76
2022/05/03 04:36:21;;;;;;;1.63;1.50;;;9.30;95.30;8.50;98050.00;;;;5134257;28;20221;-77
2022/05/03 04:38:50;;;;;;;1.73;1.63;;;9.30;95.90;8.50;98058.00;;;;5116104;28;20573;-78
2022/05/03 04:41:21;;;;;;;1.37;1.37;;;9.20;95.50;8.50;98051.00;;;;5134096;28;20220;-77
2022/05/03 04:43:47;;;;;;;1.90;1.67;;;9.20;94.90;8.60;98061.00;;;;5136492;27;20209;-77
2022/05/03 04:46:14;;;;;;;1.70;1.60;;;9.30;95.60;8.50;98059.00;;;;5137816;28;20197;-77
2022/05/03 04:48:42;;;;;;;1.70;1.60;;;9.20;95.30;8.50;98065.00;;;;5137929;28;20576;-78
2022/05/03 04:51:18;;;;;;;7.93;2.10;;;9.20;95.70;8.70;98067.00;;;;5119476;28;20671;-78
2022/05/03 04:53:44;;;;;;;2.57;2.47;;;9.30;96.20;8.70;98074.00;;;;5137768;28;20209;-77
2022/05/03 04:56:20;;;;;;;1.10;1.10;;;9.40;96.00;8.80;98064.00;;;;5137563;28;20269;-78
2022/05/03 04:58:48;;;;;;;1.83;1.67;;;9.40;96.40;8.90;98071.00;;;;5119573;28;20311;-77
2022/05/03 05:01:19;;;;;;;1.67;1.57;;;9.50;96.60;9.20;98075.00;;;;5138229;28;20228;-78
2022/05/03 05:03:46;;;;;;;1.57;1.57;;;9.70;96.50;9.10;98078.00;;;;5137373;28;20204;-77
2022/05/03 05:06:15;;;;;;;1.93;1.83;;;9.70;95.90;9.20;98077.00;;;;5137196;28;20240;-75
2022/05/03 05:08:44;;;;;;;1.53;1.43;;;9.80;95.90;9.20;98087.00;;;;5137353;28;20231;-78
2022/05/03 05:11:12;;;;;;;3.17;1.63;;;9.90;96.20;9.40;98078.00;;;;5137251;28;20228;-78
2022/05/03 05:13:40;;;;;;;0.90;0.90;;;10.00;95.80;9.60;98068.00;;;;5137482;28;20250;-76
2022/05/03 05:16:09;;;;;;;1.80;1.70;;;10.10;95.20;9.70;98081.00;;;;5137306;28;20684;-77
2022/05/03 05:18:36;;;;;;;2.47;2.33;;;10.20;95.10;9.70;98077.00;;;;5137319;28;20273;-77
2022/05/03 05:21:05;;;;;;;1.93;1.73;;;10.30;95.30;9.80;98076.00;;;;5137130;28;20307;-78
2022/05/03 05:23:32;;;;;;;1.87;1.77;;;10.30;95.30;9.90;98080.00;;;;5137242;28;20204;-78
2022/05/03 05:25:58;;;;;;;2.10;2.00;;;10.40;95.50;9.90;98069.00;;;;5137180;28;20300;-77
2022/05/03 05:28:26;;;;;;;5.40;2.33;;;10.50;96.10;10.00;98081.00;;;;5137064;28;20235;-77
2022/05/03 05:30:53;;;;;;;1.60;1.50;;;10.50;95.80;10.10;98085.00;;;;5136955;28;20272;-78
2022/05/03 05:33:20;;;;;;;2.20;2.07;;;10.60;95.50;10.20;98088.00;;;;5137098;28;20542;-77
2022/05/03 05:35:51;;;;;;;1.90;1.80;;;10.70;95.40;10.30;98081.00;;;;5137143;28;20611;-76
2022/05/03 05:38:19;;;;;;;1.83;1.73;;;10.80;95.40;10.30;98090.00;;;;5136896;28;20201;-77
2022/05/03 05:40:48;;;;;;;1.70;1.60;;;10.90;95.90;10.50;98087.00;;;;5136690;28;20567;-78
2022/05/03 05:43:16;;;;;;;3.37;2.30;;;11.10;96.10;10.60;98076.00;;;;5136810;28;20635;-77
2022/05/03 05:45:44;;;;;;;2.90;2.57;;;11.10;96.20;10.80;98080.00;;;;5136691;28;20276;-78
2022/05/03 05:48:12;;;;;;;1.67;1.57;;;11.30;96.20;10.80;98084.00;;;;5136823;28;20221;-78
2022/05/03 05:50:42;;;;;;;2.33;1.23;;;11.40;97.00;11.00;98094.00;;;;5136667;28;20235;-77
2022/05/03 05:55:54;;;;;;;1.73;1.63;;;11.60;95.80;11.10;98089.00;;;;5136640;28;20217;-77
2022/05/03 05:58:21;;;;;;;2.60;2.40;;;11.70;96.70;11.30;98097.00;;;;5136663;28;20194;-77
2022/05/03 06:00:48;;;;;;;1.63;1.57;;;11.80;96.10;11.30;98098.00;;;;5136449;28;20248;-77
2022/05/03 06:03:16;;;;;;;2.17;2.07;;;11.90;95.90;11.40;98098.00;;;;5138282;28;20205;-77
2022/05/03 06:05:45;;;;;;;1.97;1.87;;;12.00;95.50;11.50;98103.00;;;;5136907;28;20204;-77
2022/05/03 06:08:12;;;;;;;1.47;1.40;;;12.20;93.60;11.60;98094.00;;;;5136516;28;20201;-78
2022/05/03 06:10:40;;;;;;;1.77;1.67;;;12.20;94.30;11.70;98102.00;;;;5136353;28;20201;-78
2022/05/03 06:13:08;;;;;;;2.10;2.00;;;12.30;94.00;11.80;98101.00;;;;5136568;28;20197;-79
2022/05/03 06:15:34;;;;;;;3.17;2.97;;;12.40;93.90;12.00;98097.00;;;;5136577;28;20567;-78
2022/05/03 06:18:01;;;;;;;2.63;2.30;;;12.50;93.90;12.20;98100.00;;;;5136484;28;20225;-78
2022/05/03 06:20:28;;;;;;;2.33;2.13;;;12.70;94.40;12.30;98092.00;;;;5137155;28;20617;-77
2022/05/03 06:22:58;;;;;;;3.37;2.60;;;;;12.50;98100.00;;;;5131532;28;20204;-78
2022/05/03 06:25:24;;;;;;;2.63;2.30;;;13.00;93.40;12.60;98092.00;;;;5155094;28;20197;-76
2022/05/03 06:27:51;;;;;;;2.20;2.00;;;13.20;93.90;12.80;98097.00;;;;5145937;28;20225;-79
2022/05/03 06:30:18;;;;;;;2.53;2.00;;;13.30;93.10;12.90;98095.00;;;;5143458;28;20204;-78
2022/05/03 06:32:47;;;;;;;1.77;1.67;;;13.40;92.20;12.90;98096.00;;;;5138950;28;20221;-79
2022/05/03 06:35:16;;;;;;;2.70;2.53;;;13.40;91.00;13.00;98091.00;;;;5138721;28;20189;-78
2022/05/03 06:37:45;;;;;;;2.63;2.43;;;13.50;90.70;13.10;98094.00;;;;5138670;28;20322;-79
2022/05/03 06:40:12;;;;;;;1.80;1.70;;;13.60;89.80;13.20;98101.00;;;;5139667;28;20513;-79
2022/05/03 06:42:42;;;;;;;2.83;2.23;;;13.70;89.00;13.40;98097.00;;;;5140718;28;20221;-78
2022/05/03 06:45:11;;;;;;;2.23;2.03;;;13.90;89.00;13.50;98100.00;;;;5139128;28;20716;-79
2022/05/03 06:47:41;;;;;;;3.37;3.07;;;14.00;87.90;13.60;98095.00;;;;5139529;28;20217;-78
2022/05/03 06:50:09;;;;;;;3.27;2.60;;;;;13.70;98098.00;;;;5136101;28;20221;-79
2022/05/03 06:52:36;;;;;;;1.97;1.87;;;14.20;85.40;13.80;98098.00;;;;5135870;28;20254;-78
2022/05/03 06:55:04;;;;;;;1.67;1.60;;;14.30;85.60;13.90;98104.00;;;;5136050;28;20532;-78
2022/05/03 06:57:30;;;;;;;2.87;2.67;;;14.50;84.40;14.00;98092.00;;;;5138952;28;20233;-79
2022/05/03 07:00:00;;;;;;;2.00;1.90;;;14.50;85.10;14.10;98100.00;;;;5135918;28;20189;-79
2022/05/03 07:02:30;;;;;;;4.97;2.83;;;14.60;84.80;14.30;98102.00;;;;5135536;28;20228;-77
2022/05/03 07:04:58;;;;;;;1.50;1.43;;;14.70;84.90;14.40;98110.00;;;;5135400;27;20209;-77
2022/05/03 07:07:28;;;;;;;2.73;2.53;;;14.90;84.70;14.40;98087.00;;;;5117367;28;20217;-79
2022/05/03 07:09:59;;;;;;;2.57;2.40;;;;;14.50;98103.00;;;;5118011;28;20189;-79
2022/05/03 07:12:26;;;;;;;2.83;2.20;;;14.90;83.70;14.60;98107.00;;;;5135360;28;20214;-79
2022/05/03 07:14:58;;;;;;;2.03;1.83;;;15.10;84.00;14.70;98105.00;;;;5135884;28;20609;-79
2022/05/03 07:23:14;;;;;;;1.40;1.40;;;15.40;82.40;14.90;98113.00;;;;5111119;28;20254;-79
2022/05/03 07:25:44;;;;;;;1.60;1.50;;;15.40;81.60;15.10;98116.00;;;;5117334;28;20628;-78
2022/05/03 07:28:11;;;;;;;1.57;1.57;;;15.60;81.40;15.20;98109.00;;;;5135464;28;20280;-80
2022/05/03 07:30:38;;;;;;;1.07;1.07;;;15.70;81.80;15.30;98123.00;;;;5136360;28;20213;-77
2022/05/03 07:33:05;;;;;;;1.40;1.37;;;15.80;80.10;15.40;98104.00;;;;5135630;28;20361;-77
2022/05/03 07:35:32;;;;;;;1.27;1.27;;;15.90;76.90;15.70;98123.00;;;;5137140;28;20675;-79
2022/05/03 07:37:59;;;;;;;1.93;1.73;;;16.20;74.10;15.80;98130.00;;;;5138583;28;20255;-78
2022/05/03 07:40:25;;;;;;;1.37;1.30;;;16.20;74.10;15.80;98127.00;;;;5138137;28;20296;-78
2022/05/03 07:42:52;;;;;;;2.40;2.03;;;16.30;74.10;15.80;98122.00;;;;5138515;28;20697;-79
2022/05/03 07:45:19;;;;;;;3.53;1.53;;;16.30;73.00;15.90;98133.00;;;;5137901;28;20224;-80
2022/05/03 07:47:47;;;;;;;1.27;1.20;;;16.30;73.70;16.00;98125.00;;;;5136364;28;20251;-81
2022/05/03 07:50:16;;;;;;;1.73;1.60;;;17.20;81.60;16.10;98128.00;;;;5135919;28;20209;-79
2022/05/03 07:52:43;;;;;;;1.70;1.37;;;16.50;73.40;16.10;98132.00;;;;5135050;28;20232;-79
2022/05/03 07:55:10;;;;;;;1.70;1.60;;;16.60;70.70;16.10;98134.00;;;;5135006;28;20272;-78
2022/05/03 07:57:39;;;;;;;1.47;1.37;;;16.60;70.40;16.30;98137.00;;;;5134843;28;20253;-78
2022/05/03 08:00:08;;;;;;;1.57;1.53;;;16.70;66.50;16.40;98137.00;;;;5135235;28;20212;-78
2022/05/03 08:02:37;;;;;;;1.30;1.20;;;16.80;66.20;16.50;98138.00;;;;5134807;28;20213;-78
2022/05/03 08:05:04;;;;;;;5.60;2.00;;;16.90;64.30;16.60;98143.00;;;;5134836;28;20552;-78
2022/05/03 08:07:31;;;;;;;1.27;1.27;;;17.10;62.80;16.80;98144.00;;;;5134790;28;20280;-78
2022/05/03 08:09:58;;;;;;;1.30;1.17;;;17.20;63.00;16.70;98141.00;;;;5134821;28;20209;-78
2022/05/03 08:12:25;;;;;;;1.30;1.17;;;17.20;60.80;16.80;98142.00;;;;5116573;28;20301;-78
2022/05/03 08:14:52;;;;;;;1.33;1.23;;;17.30;59.70;16.80;98145.00;;;;5134660;28;20658;-78
2022/05/03 08:17:18;;;;;;;1.00;1.00;;;17.30;60.40;16.80;98143.00;;;;5134690;27;20221;-78
2022/05/03 08:19:45;;;;;;;1.40;1.40;;;17.40;61.20;16.80;98148.00;;;;5138232;28;20193;-79
2022/05/03 08:22:12;;;;;;;1.30;1.20;;;17.30;60.30;16.90;98137.00;;;;5138087;28;20200;-78
2022/05/03 08:24:38;;;;;;;2.23;2.13;;;17.40;59.90;17.00;98155.00;;;;5138089;28;20193;-78
2022/05/03 08:27:08;;;;;;;1.70;1.60;;;17.40;59.20;16.90;98148.00;;;;5138150;28;20262;-79
2022/05/03 08:29:37;;;;;;;2.17;2.07;;;17.40;57.60;16.90;98144.00;;;;5120061;28;20225;-78
2022/05/03 08:32:05;;;;;;;1.33;1.33;;;17.40;58.50;17.00;98146.00;;;;5138019;28;20235;-78
2022/05/03 08:34:32;;;;;;;1.20;1.17;;;17.60;58.10;17.20;98145.00;;;;5120009;28;20205;-78
2022/05/03 08:42:32;;;;;;;2.23;1.50;;;17.90;53.10;17.50;98160.00;;;;5137976;28;20190;-77
2022/05/03 08:45:00;;;;;;;0.93;0.93;;;18.00;52.20;17.50;98146.00;;;;5137893;28;20185;-77
2022/05/03 08:47:28;;;;;;;0.90;0.90;;;18.00;52.80;17.60;98154.00;;;;5137915;28;20273;-78
2022/05/03 08:50:07;;;;;;;0.97;0.97;;;18.00;52.10;17.60;98149.00;;;;5138065;28;20219;-79
2022/05/03 08:52:45;;;;;;;1.30;1.20;;;18.10;53.30;17.80;98142.00;;;;5119650;28;20212;-77
2022/05/03 08:55:12;;;;;;;2.03;1.93;;;18.20;51.90;18.00;98144.00;;;;5137920;28;20667;-78
2022/05/03 08:57:42;;;;;;;1.20;1.10;;;18.30;52.20;18.00;98142.00;;;;5137788;28;20243;-79
2022/05/03 09:00:12;;;;;;;1.53;1.47;;;18.50;52.30;18.00;98150.00;;;;5137893;28;20209;-78
2022/05/03 09:02:45;;;;;;;1.23;1.23;;;18.40;50.80;18.40;98154.00;;;;5137948;28;20178;-79
2022/05/03 09:05:12;;;;;;;0.73;0.73;;;18.80;48.30;18.50;98153.00;;;;5138440;28;20625;-78
2022/05/03 09:07:48;;;;;;;1.27;1.27;;;18.80;48.90;18.90;98155.00;;;;5137701;28;20185;-78
2022/05/03 09:10:18;;;;;;;0.80;0.80;;;19.10;49.10;18.80;98156.00;;;;5137446;28;20636;-79
2022/05/03 09:12:46;;;;;;;0.90;0.90;;;19.20;48.70;19.00;98156.00;;;;5137606;28;20257;-78
2022/05/03 09:15:15;;;;;;;1.50;1.47;;;19.30;48.60;18.90;98152.00;;;;5137282;28;20193;-78
2022/05/03 09:17:46;;;;;;;0.60;0.60;;;19.30;47.70;18.90;98146.00;;;;5137517;28;20228;-79
2022/05/03 09:26:09;;;;;;;1.00;1.00;;;19.30;46.00;18.70;98153.00;;;;5124873;28;20213;-79
2022/05/03 09:28:44;;;;;;;0.57;0.57;;;19.30;48.30;18.80;98150.00;;;;5138024;27;20189;-78
2022/05/03 09:31:11;;;;;;;1.53;1.43;;;19.20;47.90;18.80;98150.00;;;;5137274;28;20210;-78
2022/05/03 09:33:39;;;;;;;1.10;1.10;;;19.30;46.40;18.80;98146.00;;;;5136992;28;20640;-78
2022/05/03 09:36:09;;;;;;;1.00;1.00;;;19.20;45.70;18.80;98152.00;;;;5137259;28;20518;-78
2022/05/03 09:38:46;;;;;;;1.00;1.00;;;19.30;46.40;18.90;98150.00;;;;5136998;28;20277;-78
2022/05/03 09:41:14;;;;;;;1.27;1.17;;;19.30;47.40;18.80;98149.00;;;;5137239;28;20628;-78
2022/05/03 09:44:04;;;;;;;0.77;0.77;;;19.30;47.60;19.20;98145.00;;;;5137083;28;20244;-78
2022/05/03 09:46:32;;;;;;;1.10;1.10;;;19.60;46.60;19.30;98136.00;;;;5118895;28;20554;-78
2022/05/03 09:49:01;;;;;;;1.00;1.00;;;19.70;45.50;19.40;98140.00;;;;5137021;28;20247;-78
2022/05/03 09:51:34;;;;;;;0.63;0.63;;;19.80;45.10;19.70;98144.00;;;;5119063;28;20205;-79
2022/05/03 09:54:04;;;;;;;1.53;1.37;;;20.00;42.60;19.70;98140.00;;;;5136975;28;20236;-79
2022/05/03 09:56:35;;;;;;;1.07;1.00;;;20.10;41.80;19.90;98137.00;;;;5136702;28;20308;-78
2022/05/03 09:59:08;;;;;;;1.80;1.50;;;20.20;43.40;20.20;98147.00;;;;5136795;28;20170;-78
2022/05/03 10:01:35;;;;;;;0.70;0.70;;;20.60;43.60;20.40;98139.00;;;;5136850;28;20220;-79
2022/05/03 10:04:05;;;;;;;4.17;1.43;;;20.60;43.20;20.40;98141.00;;;;5136878;28;20222;-79
2022/05/03 10:06:33;;;;;;;0.83;0.83;;;20.70;41.10;20.40;98135.00;;;;5136822;28;20193;-79
2022/05/03 10:09:01;;;;;;;1.17;1.17;;;20.70;41.50;20.50;98136.00;;;;5136579;28;20643;-79
2022/05/03 10:11:29;;;;;;;0.87;0.87;;;20.90;40.10;20.60;98135.00;;;;5137071;28;20231;-79
2022/05/03 10:13:55;;;;;;;1.20;1.20;;;20.90;39.40;20.60;98131.00;;;;5137119;28;20193;-79
2022/05/03 10:22:05;;;;;;;0.80;0.80;;;21.00;39.10;20.70;98126.00;;;;5136456;28;20208;-81
2022/05/03 10:24:53;;;;;;;1.73;1.27;;;21.10;38.10;20.70;98119.00;;;;5136426;28;20227;-78
2022/05/03 10:27:24;;;;;;;0.90;0.90;;;21.10;39.50;20.80;98118.00;;;;5136338;28;20190;-80
2022/05/03 10:30:16;;;;;;;1.27;1.27;;;21.20;41.40;21.00;98117.00;;;;5136215;28;20251;-79
2022/05/03 10:32:43;;;;;;;1.70;1.60;;;21.30;39.40;20.90;98114.00;;;;5136138;28;20634;-79
2022/05/03 10:35:33;;;;;;;0.83;0.83;;;21.30;36.70;20.80;98106.00;;;;5135990;28;20217;-78
2022/05/03 10:38:06;;;;;;;1.00;1.00;;;21.20;37.00;20.90;98109.00;;;;5142861;28;20253;-80
2022/05/03 10:40:39;;;;;;;1.37;1.23;;;21.20;38.40;20.80;98108.00;;;;5119215;28;20236;-79
2022/05/03 10:43:10;;;;;;;0.80;0.80;;;21.20;38.40;21.10;98085.00;;;;5136244;28;20210;-79
2022/05/03 10:45:53;;;;;;;0.90;0.90;;;21.40;38.50;21.20;98106.00;;;;5135858;28;20224;-79
2022/05/03 10:48:27;;;;;;;1.27;1.23;;;21.40;38.20;21.40;98101.00;;;;5117762;28;20592;-78
2022/05/03 10:50:57;;;;;;;0.87;0.87;;;21.70;37.70;21.30;98105.00;;;;5135749;28;20231;-78
2022/05/03 10:53:30;;;;;;;1.30;1.20;;;21.70;38.60;21.30;98105.00;;;;5117792;28;20213;-78
2022/05/03 10:56:20;;;;;;;1.00;1.00;;;21.60;38.30;21.40;98101.00;;;;5135725;28;20229;-79
2022/05/03 10:59:14;;;;;;;0.88;0.88;;;21.80;38.60;21.60;98099.00;;;;5117854;28;20629;-80
2022/05/03 11:02:10;;;;;;;1.00;1.00;;;21.90;36.80;21.60;98087.00;;;;5135649;28;20255;-78
2022/05/03 11:05:14;;;;;;;0.70;0.70;;;22.00;37.40;21.60;98087.00;;;;5135877;28;20636;-79
2022/05/03 11:07:41;;;;;;;0.90;0.90;;;22.20;36.40;21.60;98090.00;;;;5135707;28;20194;-77
2022/05/03 11:10:39;;;;;;;0.60;0.60;;;22.00;35.20;21.90;98080.00;;;;5135698;28;20193;-81
2022/05/03 11:13:35;;;;;;;1.15;1.15;;;22.20;37.20;22.00;98093.00;;;;5135688;28;20212;-78
2022/05/03 11:16:25;;;;;;;1.55;1.45;;;22.30;37.50;21.70;98086.00;;;;5118040;28;20592;-80
2022/05/03 11:18:55;;;;;;;2.08;1.73;;;22.20;35.20;21.90;98091.00;;;;5136687;28;20713;-78
2022/05/03 11:21:22;;;;;;;4.32;1.08;;;22.20;37.70;22.00;98079.00;;;;5137296;28;20693;-78
2022/05/03 11:23:51;;;;;;;0.80;0.80;;;22.40;36.20;22.20;98078.00;;;;5138932;28;20312;-80
2022/05/03 11:26:19;;;;;;;0.60;0.60;;;22.50;35.10;22.50;98084.00;;;;5137812;28;20266;-80
2022/05/03 11:28:48;;;;;;;1.83;1.73;;;22.70;36.90;22.30;98081.00;;;;5137880;28;20228;-79
2022/05/03 11:31:18;;;;;;;1.35;1.30;;;22.70;36.30;22.10;98072.00;;;;5139988;28;20213;-81
2022/05/03 11:33:51;;;;;;;2.22;1.23;;;22.50;36.40;21.80;98079.00;;;;5137763;28;20189;-80
2022/05/03 11:36:19;;;;;;;1.27;1.20;;;22.30;36.90;21.60;98070.00;;;;5136335;28;20651;-79
2022/05/03 11:38:49;;;;;;;0.60;0.60;;;22.10;35.30;21.40;98053.00;;;;5135429;28;20523;-80
2022/05/03 11:41:19;;;;;;;1.42;1.38;;;21.90;36.00;21.20;98063.00;;;;5135131;28;20557;-78
2022/05/03 11:43:47;;;;;;;1.03;1.03;;;21.70;37.50;21.30;98057.00;;;;5117074;28;20228;-79
2022/05/03 11:46:15;;;;;;;1.13;1.13;;;21.60;38.00;21.70;98051.00;;;;5134919;28;20217;-78
2022/05/03 11:48:42;;;;;;;0.55;0.55;;;22.00;38.10;22.30;98049.00;;;;5135033;28;20630;-80
2022/05/03 11:56:42;;;;;;;1.38;1.13;;;23.40;36.70;23.70;98036.00;;;;5134908;28;20702;-79
2022/05/03 11:59:09;;;;;;;0.80;0.80;;;23.80;34.10;24.00;98041.00;;;;5135139;28;20628;-79
2022/05/03 12:01:37;;;;;;;1.02;1.02;;;24.20;32.20;24.00;98039.00;;;;5134737;28;20228;-78
2022/05/03 12:04:07;;;;;;;1.15;1.15;;;24.30;32.60;24.30;98046.00;;;;5134733;28;20276;-79
2022/05/03 12:06:43;;;;;;;0.88;0.88;;;24.50;32.60;24.20;98041.00;;;;5135018;28;20228;-79